Time;durP1;ratioP1;P1;durP2;ratioP2;P2;SDS_P1;SDS_P2;PMS_P1;PMS_P2;Temp;Humidity;BMP_temperature;BMP_pressure;BME280_temperature;BME280_humidity;BME280_pressure;Samples;Min_cycle;Max_cycle;Signal;HPM_P1;HPM_P2
2023/07/21 00:00:14;;;;;;;1.97;1.73;;;20.70;77.10;;;;;;5044967;28;20171;-69
2023/07/21 00:02:41;;;;;;;1.57;1.20;;;20.80;77.10;;;;;;5045347;28;20410;-69
2023/07/21 00:05:07;;;;;;;1.50;1.40;;;20.80;77.00;;;;;;5045986;28;20401;-69
2023/07/21 00:07:35;;;;;;;2.10;1.60;;;20.80;77.10;;;;;;5044072;28;20438;-68
2023/07/21 00:10:07;;;;;;;2.60;1.40;;;20.80;77.40;;;;;;5041967;28;20402;-68
2023/07/21 00:12:37;;;;;;;2.53;1.50;;;20.70;77.50;;;;;;5044618;28;20435;-68
2023/07/21 00:15:04;;;;;;;1.73;1.53;;;20.50;77.90;;;;;;5045936;28;20402;-68
2023/07/21 00:17:31;;;;;;;2.70;1.80;;;20.60;78.50;;;;;;5046049;28;20510;-68
2023/07/21 00:20:10;;;;;;;2.00;1.43;;;20.60;78.00;;;;;;5041842;28;20425;-68
2023/07/21 00:22:42;;;;;;;2.60;2.10;;;20.70;77.80;;;;;;5041235;28;20475;-69
2023/07/21 00:25:11;;;;;;;3.13;1.80;;;20.80;77.60;;;;;;5046490;28;20399;-68
2023/07/21 00:27:40;;;;;;;1.83;1.63;;;20.90;77.80;;;;;;5039564;28;20419;-68
2023/07/21 00:30:09;;;;;;;1.60;1.30;;;20.90;77.00;;;;;;5043751;28;20405;-68
2023/07/21 00:32:36;;;;;;;2.40;1.67;;;20.80;77.80;;;;;;5043443;28;20421;-69
2023/07/21 00:35:06;;;;;;;2.47;1.90;;;20.80;77.60;;;;;;5045373;28;20496;-69
2023/07/21 00:37:32;;;;;;;1.57;1.40;;;20.80;78.20;;;;;;5043833;28;20437;-68
2023/07/21 00:39:58;;;;;;;1.60;1.30;;;20.90;78.00;;;;;;5045369;28;20414;-67
2023/07/21 00:42:24;;;;;;;3.33;1.93;;;20.90;78.40;;;;;;5046806;28;20199;-68
2023/07/21 00:44:49;;;;;;;1.50;1.40;;;20.90;78.60;;;;;;5043341;28;20171;-68
2023/07/21 00:47:15;;;;;;;4.20;1.50;;;20.80;78.30;;;;;;5045567;28;20194;-68
2023/07/21 00:49:41;;;;;;;2.93;1.80;;;20.80;78.80;;;;;;5044897;28;20178;-68
2023/07/21 00:52:09;;;;;;;2.23;1.70;;;20.70;78.70;;;;;;5040167;28;20168;-69
2023/07/21 00:54:35;;;;;;;3.00;1.57;;;20.70;79.00;;;;;;5046334;28;20397;-67
2023/07/21 00:57:01;;;;;;;2.20;1.83;;;20.70;79.30;;;;;;5043906;28;20424;-69
2023/07/21 00:59:27;;;;;;;3.03;1.57;;;20.70;79.30;;;;;;5043577;28;20457;-69
2023/07/21 01:01:53;;;;;;;2.63;1.60;;;20.70;79.10;;;;;;5047184;28;20209;-68
2023/07/21 01:04:19;;;;;;;2.30;1.50;;;20.60;80.30;;;;;;5043657;28;20394;-68
2023/07/21 01:06:46;;;;;;;3.20;1.70;;;20.70;79.30;;;;;;5044570;28;20171;-68
2023/07/21 01:09:12;;;;;;;3.83;1.83;;;20.80;78.60;;;;;;5045802;28;20413;-69
2023/07/21 01:11:39;;;;;;;2.10;1.80;;;20.80;78.50;;;;;;5043116;28;20492;-68
2023/07/21 01:14:07;;;;;;;2.87;1.80;;;20.80;78.80;;;;;;5044061;28;20531;-69
2023/07/21 01:16:37;;;;;;;3.27;1.93;;;20.80;78.50;;;;;;5043666;28;20772;-69
2023/07/21 01:19:08;;;;;;;2.43;2.23;;;20.70;79.00;;;;;;5045314;28;20872;-68
2023/07/21 01:21:48;;;;;;;3.40;1.83;;;20.80;79.60;;;;;;5046167;28;20401;-68
2023/07/21 01:24:27;;;;;;;1.83;1.60;;;20.70;79.60;;;;;;5041175;28;20877;-68
2023/07/21 01:26:55;;;;;;;3.60;1.90;;;20.70;79.90;;;;;;5045665;28;20451;-69
2023/07/21 01:29:23;;;;;;;2.23;1.60;;;20.70;80.30;;;;;;5043056;28;20434;-68
2023/07/21 01:31:50;;;;;;;2.43;1.30;;;20.70;80.30;;;;;;5037720;28;20405;-68
2023/07/21 01:34:16;;;;;;;2.53;2.00;;;20.70;80.50;;;;;;5043802;28;20886;-67
2023/07/21 01:36:43;;;;;;;2.30;1.60;;;20.60;81.30;;;;;;5042151;28;20409;-68
2023/07/21 01:39:08;;;;;;;2.33;2.07;;;20.60;81.90;;;;;;5045447;28;20506;-68
2023/07/21 01:41:35;;;;;;;2.37;1.80;;;20.60;82.20;;;;;;5043049;28;20402;-68
2023/07/21 01:44:01;;;;;;;2.70;1.73;;;20.50;81.80;;;;;;5044171;28;20169;-67
2023/07/21 01:46:27;;;;;;;2.13;1.70;;;20.50;82.30;;;;;;5042886;28;20909;-67
2023/07/21 01:48:52;;;;;;;2.17;1.93;;;20.50;82.70;;;;;;5045163;28;20248;-67
2023/07/21 01:51:20;;;;;;;2.33;2.00;;;20.50;83.10;;;;;;5044639;28;20289;-66
2023/07/21 01:54:00;;;;;;;2.07;1.57;;;20.50;83.50;;;;;;5044921;28;20170;-69
2023/07/21 01:56:35;;;;;;;1.80;1.60;;;20.50;83.90;;;;;;5043614;28;20390;-67
2023/07/21 01:59:05;;;;;;;2.93;2.10;;;20.50;83.90;;;;;;5043917;28;20437;-67
2023/07/21 02:01:33;;;;;;;2.57;2.03;;;20.50;84.10;;;;;;5042805;28;20427;-68
2023/07/21 02:03:58;;;;;;;3.80;1.63;;;20.40;84.70;;;;;;5044921;28;20848;-69
2023/07/21 02:06:24;;;;;;;2.80;2.10;;;20.30;85.40;;;;;;5043332;28;20484;-68
2023/07/21 02:08:50;;;;;;;2.40;1.60;;;20.30;85.50;;;;;;5042891;28;20187;-68
2023/07/21 02:11:15;;;;;;;2.47;1.93;;;20.20;86.10;;;;;;5043153;28;20254;-68
2023/07/21 02:13:41;;;;;;;2.00;1.57;;;20.20;86.40;;;;;;5044651;28;20179;-68
2023/07/21 02:16:06;;;;;;;1.97;1.53;;;20.20;86.80;;;;;;5043714;28;20541;-69
2023/07/21 02:18:35;;;;;;;2.57;1.90;;;20.30;85.40;;;;;;5042521;28;20199;-67
2023/07/21 02:21:02;;;;;;;2.90;2.07;;;20.30;85.10;;;;;;5037231;28;20163;-69
2023/07/21 02:23:28;;;;;;;2.80;2.20;;;20.30;85.10;;;;;;5042486;28;20397;-67
2023/07/21 02:25:53;;;;;;;2.07;1.53;;;20.20;85.90;;;;;;5042433;28;20439;-70
2023/07/21 02:28:19;;;;;;;2.67;1.70;;;20.20;86.20;;;;;;5044904;28;20190;-69
2023/07/21 02:30:45;;;;;;;2.87;1.63;;;20.00;86.50;;;;;;5041602;28;20230;-69
2023/07/21 02:33:10;;;;;;;2.23;1.57;;;20.00;86.90;;;;;;5043627;28;20193;-70
2023/07/21 02:35:36;;;;;;;2.03;1.53;;;19.90;87.70;;;;;;5042210;28;20172;-69
2023/07/21 02:38:05;;;;;;;2.17;1.80;;;20.00;87.80;;;;;;5044275;28;20685;-69
2023/07/21 02:40:31;;;;;;;2.00;1.80;;;20.10;87.70;;;;;;5042858;28;20194;-70
2023/07/21 02:42:58;;;;;;;1.83;1.37;;;20.20;87.40;;;;;;5041239;28;20433;-69
2023/07/21 02:45:23;;;;;;;2.40;1.67;;;20.20;87.50;;;;;;5044296;28;20397;-69
2023/07/21 02:47:49;;;;;;;2.23;1.90;;;20.20;87.60;;;;;;5041682;28;20425;-69
2023/07/21 02:50:15;;;;;;;1.60;1.50;;;20.20;87.70;;;;;;5041843;28;20159;-69
2023/07/21 02:52:42;;;;;;;1.90;1.80;;;20.30;87.70;;;;;;5041590;28;20167;-68
2023/07/21 02:55:08;;;;;;;2.50;1.60;;;20.30;87.50;;;;;;5042808;28;20406;-68
2023/07/21 02:57:34;;;;;;;2.13;1.70;;;20.20;88.10;;;;;;5042309;28;20417;-67
2023/07/21 03:00:03;;;;;;;2.13;1.70;;;20.20;88.20;;;;;;5041743;28;20167;-68
2023/07/21 03:02:29;;;;;;;2.23;2.00;;;20.20;88.50;;;;;;5041409;28;20916;-68
2023/07/21 03:04:54;;;;;;;2.30;1.80;;;20.20;89.20;;;;;;5043550;28;20456;-69
2023/07/21 03:07:20;;;;;;;2.70;2.07;;;20.20;89.60;;;;;;5043016;28;20515;-70
2023/07/21 03:09:46;;;;;;;1.77;1.47;;;20.20;89.40;;;;;;5041383;28;20228;-68
2023/07/21 03:12:12;;;;;;;2.97;2.10;;;20.20;89.20;;;;;;5044052;28;20177;-68
2023/07/21 03:14:37;;;;;;;1.97;1.70;;;20.10;89.40;;;;;;5042409;28;20245;-69
2023/07/21 03:17:03;;;;;;;1.57;1.43;;;20.00;89.10;;;;;;5042274;28;20517;-67
2023/07/21 03:19:30;;;;;;;2.10;1.90;;;19.90;89.90;;;;;;5040921;28;20211;-69
2023/07/21 03:21:56;;;;;;;2.50;2.00;;;19.90;90.40;;;;;;5045099;28;20644;-69
2023/07/21 03:24:22;;;;;;;2.00;1.70;;;19.80;90.50;;;;;;5041977;28;20448;-69
2023/07/21 03:26:49;;;;;;;2.47;1.50;;;19.70;90.40;;;;;;5044076;28;20456;-69
2023/07/21 03:29:15;;;;;;;2.63;1.70;;;19.80;90.70;;;;;;5042368;28;20166;-68
2023/07/21 03:31:41;;;;;;;1.67;1.50;;;19.80;90.70;;;;;;5039704;28;20895;-69
2023/07/21 03:34:06;;;;;;;2.00;1.73;;;19.80;90.30;;;;;;5043735;28;20253;-66
2023/07/21 03:36:32;;;;;;;2.10;1.70;;;19.90;90.50;;;;;;5045217;28;20197;-69
2023/07/21 03:38:57;;;;;;;1.93;1.40;;;19.80;90.80;;;;;;5046289;28;20183;-68
2023/07/21 03:41:23;;;;;;;3.17;1.57;;;19.70;90.70;;;;;;5045456;28;20250;-68
2023/07/21 03:43:49;;;;;;;2.57;1.83;;;19.60;91.10;;;;;;5047710;28;20179;-68
2023/07/21 03:46:15;;;;;;;2.40;1.50;;;19.60;91.30;;;;;;5046024;28;20532;-68
2023/07/21 03:48:42;;;;;;;2.07;1.30;;;19.50;91.90;;;;;;5044279;28;20426;-69
2023/07/21 03:51:09;;;;;;;2.47;1.97;;;19.40;92.10;;;;;;5048363;28;20349;-68
2023/07/21 03:53:34;;;;;;;2.70;1.97;;;19.40;92.20;;;;;;5047031;28;20445;-68
2023/07/21 03:56:00;;;;;;;1.93;1.73;;;19.30;92.40;;;;;;5046832;28;20780;-68
2023/07/21 03:58:26;;;;;;;1.90;1.50;;;19.30;92.60;;;;;;5044905;28;20559;-68
2023/07/21 04:00:52;;;;;;;1.70;1.60;;;19.40;92.20;;;;;;5047639;28;20182;-69
2023/07/21 04:03:18;;;;;;;2.90;2.13;;;19.40;91.90;;;;;;5047637;28;20393;-68
2023/07/21 04:05:44;;;;;;;2.10;1.80;;;19.50;91.90;;;;;;5044766;28;20243;-68
2023/07/21 04:08:09;;;;;;;2.73;2.10;;;19.60;91.90;;;;;;5047142;28;20555;-68
2023/07/21 04:10:40;;;;;;;3.20;2.30;;;19.60;91.60;;;;;;5046045;28;20743;-68
2023/07/21 04:13:07;;;;;;;3.33;3.03;;;19.60;91.40;;;;;;5046543;28;20186;-69
2023/07/21 04:15:32;;;;;;;1.97;1.77;;;19.60;91.70;;;;;;5044258;28;20406;-68
2023/07/21 04:17:58;;;;;;;2.60;1.97;;;19.60;91.90;;;;;;5046227;28;20568;-68
2023/07/21 04:20:23;;;;;;;2.07;1.50;;;19.60;91.80;;;;;;5046874;28;20170;-68
2023/07/21 04:22:50;;;;;;;2.33;2.13;;;19.60;91.60;;;;;;5047241;28;20166;-68
2023/07/21 04:25:17;;;;;;;3.33;1.97;;;19.60;91.90;;;;;;5035675;28;20175;-69
2023/07/21 04:27:45;;;;;;;5.10;2.20;;;19.60;91.90;;;;;;5042147;28;20935;-68
2023/07/21 04:30:11;;;;;;;3.37;2.30;;;19.60;91.70;;;;;;5045936;28;20868;-67
2023/07/21 04:32:38;;;;;;;2.20;1.87;;;19.50;91.90;;;;;;5044135;28;20413;-68
2023/07/21 04:35:08;;;;;;;1.93;1.70;;;19.60;92.30;;;;;;5045378;28;20462;-69
2023/07/21 04:37:37;;;;;;;2.93;1.93;;;19.50;92.70;;;;;;5044462;28;20421;-69
2023/07/21 04:40:06;;;;;;;2.50;2.20;;;19.40;93.20;;;;;;5045709;28;20814;-69
2023/07/21 04:42:32;;;;;;;2.50;2.10;;;19.40;93.20;;;;;;5043918;28;20728;-69
2023/07/21 04:44:58;;;;;;;1.83;1.70;;;19.50;93.00;;;;;;5043705;28;20514;-68
2023/07/21 04:47:24;;;;;;;2.73;1.87;;;19.60;93.60;;;;;;5045749;28;20483;-69
2023/07/21 04:49:50;;;;;;;2.20;1.70;;;19.70;93.30;;;;;;5044083;28;20441;-68
2023/07/21 04:52:16;;;;;;;2.50;2.20;;;19.90;93.90;;;;;;5045243;28;20402;-68
2023/07/21 04:54:42;;;;;;;3.40;2.07;;;20.00;94.00;;;;;;5044130;28;20450;-68
2023/07/21 04:57:07;;;;;;;3.57;2.27;;;20.10;93.50;;;;;;5045072;28;20210;-68
2023/07/21 04:59:33;;;;;;;3.70;2.03;;;20.20;93.70;;;;;;5046267;28;20222;-68
2023/07/21 05:01:58;;;;;;;2.60;1.93;;;20.20;93.10;;;;;;5043872;28;20163;-68
2023/07/21 05:04:24;;;;;;;2.33;2.13;;;20.30;93.60;;;;;;5044212;28;20748;-69
2023/07/21 05:06:50;;;;;;;2.60;2.00;;;20.40;93.40;;;;;;5042075;28;20694;-68
2023/07/21 05:09:15;;;;;;;2.57;2.00;;;20.40;93.70;;;;;;5046228;28;20197;-69
2023/07/21 05:11:41;;;;;;;2.63;1.77;;;20.60;93.60;;;;;;5045150;28;20199;-67
2023/07/21 05:14:07;;;;;;;2.40;2.20;;;20.70;93.70;;;;;;5045272;28;20170;-68
2023/07/21 05:16:35;;;;;;;2.27;2.00;;;20.70;94.10;;;;;;5042902;28;20409;-67
2023/07/21 05:19:01;;;;;;;3.20;2.30;;;20.70;93.50;;;;;;5044715;28;20187;-67
2023/07/21 05:21:26;;;;;;;4.20;2.07;;;20.90;93.90;;;;;;5044737;28;20480;-67
2023/07/21 05:23:52;;;;;;;3.70;2.10;;;21.00;94.10;;;;;;5045708;28;20659;-67
2023/07/21 05:26:18;;;;;;;3.90;2.30;;;21.00;94.10;;;;;;5043078;28;20177;-68
2023/07/21 05:28:43;;;;;;;4.37;3.20;;;21.00;94.60;;;;;;5044267;28;20244;-68
2023/07/21 05:31:12;;;;;;;4.40;2.67;;;21.10;93.90;;;;;;5043276;28;20176;-67
2023/07/21 05:33:37;;;;;;;2.40;2.10;;;21.10;93.30;;;;;;5038556;28;20163;-67
2023/07/21 05:36:10;;;;;;;2.50;2.30;;;21.20;93.80;;;;;;5044761;28;20405;-69
2023/07/21 05:38:37;;;;;;;3.30;2.40;;;21.30;93.90;;;;;;5043903;28;20206;-69
2023/07/21 05:41:03;;;;;;;2.77;1.97;;;21.40;94.40;;;;;;5046767;28;20413;-69
2023/07/21 05:43:29;;;;;;;2.50;2.30;;;21.50;94.00;;;;;;5042544;28;20434;-68
2023/07/21 05:45:55;;;;;;;2.47;2.20;;;21.50;93.60;;;;;;5044442;28;20456;-68
2023/07/21 05:48:21;;;;;;;2.40;2.17;;;21.60;93.10;;;;;;5043982;28;20182;-68
2023/07/21 05:50:47;;;;;;;3.60;2.03;;;21.80;93.20;;;;;;5045532;28;20174;-66
2023/07/21 05:53:14;;;;;;;3.30;1.90;;;21.90;93.40;;;;;;5042916;28;20492;-68
2023/07/21 05:55:43;;;;;;;3.33;2.70;;;22.00;93.50;;;;;;5043732;28;20198;-67
2023/07/21 05:58:08;;;;;;;3.80;2.23;;;22.10;92.20;;;;;;5043844;28;20548;-67
2023/07/21 06:00:38;;;;;;;3.50;2.57;;;22.30;92.10;;;;;;5043410;28;20449;-69
2023/07/21 06:03:05;;;;;;;4.30;2.60;;;22.40;91.30;;;;;;5042533;28;20661;-69
2023/07/21 06:05:31;;;;;;;4.43;2.80;;;22.50;91.00;;;;;;5043650;28;20402;-69
2023/07/21 06:07:56;;;;;;;6.20;2.67;;;22.60;91.20;;;;;;5044124;28;20420;-68
2023/07/21 06:10:22;;;;;;;4.27;2.83;;;22.80;91.00;;;;;;5041805;28;20402;-68
2023/07/21 06:12:51;;;;;;;3.37;2.60;;;23.00;90.40;;;;;;5041800;28;20550;-67
2023/07/21 06:15:16;;;;;;;3.03;2.73;;;23.20;90.70;;;;;;5042955;28;20275;-68
2023/07/21 06:17:42;;;;;;;3.90;2.80;;;23.30;90.10;;;;;;5043766;28;20533;-67
2023/07/21 06:20:10;;;;;;;4.07;2.47;;;23.20;90.10;;;;;;5043883;28;20178;-67
2023/07/21 06:22:36;;;;;;;2.43;2.23;;;23.20;86.70;;;;;;5043308;28;20533;-67
2023/07/21 06:25:04;;;;;;;3.43;2.40;;;23.30;87.10;;;;;;5043155;28;20454;-67
2023/07/21 06:27:29;;;;;;;2.43;1.97;;;23.40;87.70;;;;;;5041819;28;20270;-67
2023/07/21 06:29:55;;;;;;;3.10;2.10;;;23.50;87.60;;;;;;5044203;28;20453;-67
2023/07/21 06:32:21;;;;;;;3.10;2.07;;;23.60;85.90;;;;;;5042236;28;20167;-67
2023/07/21 06:34:47;;;;;;;2.50;1.97;;;23.60;85.90;;;;;;5041281;28;20467;-67
2023/07/21 06:37:13;;;;;;;4.43;2.87;;;23.50;85.20;;;;;;5043800;28;20191;-68
2023/07/21 06:39:38;;;;;;;2.33;1.70;;;23.60;83.50;;;;;;5038913;28;20199;-67
2023/07/21 06:42:04;;;;;;;2.80;1.60;;;23.30;81.10;;;;;;5041493;28;20637;-69
2023/07/21 06:44:31;;;;;;;2.30;1.93;;;23.20;81.30;;;;;;5044157;28;20221;-68
2023/07/21 06:46:57;;;;;;;2.37;2.17;;;23.70;84.10;;;;;;5038676;28;20437;-68
2023/07/21 06:49:23;;;;;;;4.40;2.20;;;24.00;83.50;;;;;;5043156;28;20477;-67
2023/07/21 06:51:48;;;;;;;2.30;1.97;;;24.10;83.10;;;;;;5044002;28;20961;-68
2023/07/21 06:54:14;;;;;;;2.47;2.27;;;24.00;78.80;;;;;;5042010;28;20224;-68
2023/07/21 06:56:40;;;;;;;2.37;1.97;;;23.60;79.40;;;;;;5037823;28;20233;-68
2023/07/21 06:59:05;;;;;;;3.40;2.40;;;23.60;81.40;;;;;;5041028;28;20202;-67
2023/07/21 07:01:31;;;;;;;3.70;2.80;;;23.60;82.00;;;;;;5043564;28;20173;-67
2023/07/21 07:03:59;;;;;;;7.67;3.53;;;23.30;83.00;;;;;;5042113;28;20163;-68
2023/07/21 07:06:27;;;;;;;5.43;2.90;;;22.70;85.10;;;;;;5044757;28;20688;-69
2023/07/21 07:08:52;;;;;;;3.70;3.00;;;22.30;86.40;;;;;;5040016;28;20505;-68
2023/07/21 07:11:18;;;;;;;3.77;2.70;;;22.10;88.50;;;;;;5047650;28;20500;-68
2023/07/21 07:13:44;;;;;;;3.40;2.70;;;22.10;85.60;;;;;;5045911;28;20163;-68
2023/07/21 07:16:10;;;;;;;8.70;2.90;;;22.10;86.50;;;;;;5048551;28;20177;-68
2023/07/21 07:18:36;;;;;;;7.47;2.40;;;22.50;85.40;;;;;;5047147;28;20207;-68
2023/07/21 07:21:03;;;;;;;3.63;2.53;;;22.60;85.00;;;;;;5044788;28;20412;-68
2023/07/21 07:23:29;;;;;;;4.03;2.43;;;22.70;84.70;;;;;;5047995;28;20520;-69
2023/07/21 07:25:54;;;;;;;2.70;2.37;;;22.80;85.20;;;;;;5045171;28;20420;-67
2023/07/21 07:28:21;;;;;;;4.53;2.17;;;22.70;84.50;;;;;;5046555;28;20214;-68
2023/07/21 07:30:48;;;;;;;3.93;2.13;;;22.80;83.40;;;;;;5046166;28;20665;-68
2023/07/21 07:33:15;;;;;;;3.40;2.00;;;22.80;82.90;;;;;;5047501;28;20781;-69
2023/07/21 07:35:48;;;;;;;2.97;2.70;;;22.60;84.60;;;;;;5045318;28;20751;-68
2023/07/21 07:38:14;;;;;;;4.80;2.87;;;22.70;83.80;;;;;;5047303;28;20537;-68
2023/07/21 07:40:39;;;;;;;2.43;1.90;;;22.60;84.20;;;;;;5047456;28;20542;-68
2023/07/21 07:43:05;;;;;;;3.30;2.30;;;22.80;84.80;;;;;;5048260;28;20174;-68
2023/07/21 07:45:31;;;;;;;3.50;2.13;;;22.90;84.00;;;;;;5045437;28;20171;-68
2023/07/21 07:47:57;;;;;;;4.37;2.70;;;22.80;84.20;;;;;;5048466;28;20269;-68
2023/07/21 07:50:22;;;;;;;6.80;1.90;;;22.80;84.10;;;;;;5045741;28;20408;-68
2023/07/21 07:52:49;;;;;;;6.03;2.20;;;22.50;85.10;;;;;;5045272;28;20168;-68
2023/07/21 07:55:15;;;;;;;5.40;2.37;;;23.00;85.40;;;;;;5046391;28;20198;-68
2023/07/21 07:57:41;;;;;;;4.80;2.10;;;23.50;83.70;;;;;;5047356;28;20470;-69
2023/07/21 08:00:08;;;;;;;3.43;1.90;;;23.70;81.70;;;;;;5046243;28;20816;-68
2023/07/21 08:02:34;;;;;;;4.27;2.30;;;23.90;80.90;;;;;;5045294;28;20167;-68
2023/07/21 08:04:59;;;;;;;4.23;1.80;;;23.90;80.10;;;;;;5045010;28;20436;-68
2023/07/21 08:07:25;;;;;;;7.00;2.70;;;24.00;79.70;;;;;;5047224;28;20182;-68
2023/07/21 08:09:50;;;;;;;2.67;1.70;;;23.50;81.20;;;;;;5046969;28;20603;-64
2023/07/21 08:12:16;;;;;;;3.30;2.30;;;23.30;82.50;;;;;;5046072;28;20163;-68
2023/07/21 08:14:41;;;;;;;4.00;2.30;;;23.00;83.40;;;;;;5043222;28;20215;-68
2023/07/21 08:17:08;;;;;;;3.03;2.07;;;23.00;83.80;;;;;;5047078;28;20228;-68
2023/07/21 08:19:34;;;;;;;2.67;1.77;;;23.00;83.90;;;;;;5045134;28;20187;-68
2023/07/21 08:22:07;;;;;;;2.20;1.80;;;23.00;82.80;;;;;;5040926;28;20420;-69
2023/07/21 08:24:33;;;;;;;3.10;2.30;;;22.90;82.90;;;;;;5046873;28;20167;-66
2023/07/21 08:26:59;;;;;;;4.23;2.20;;;22.70;82.60;;;;;;5043956;28;20458;-69
2023/07/21 08:29:26;;;;;;;4.23;2.40;;;22.70;82.10;;;;;;5045260;28;20406;-69
2023/07/21 08:31:52;;;;;;;4.13;2.07;;;22.80;82.40;;;;;;5043990;28;20254;-69
2023/07/21 08:34:17;;;;;;;2.70;2.10;;;23.00;81.40;;;;;;5044530;28;20425;-68
2023/07/21 08:36:43;;;;;;;3.30;2.30;;;22.80;81.90;;;;;;5044767;28;20467;-68
2023/07/21 08:39:08;;;;;;;3.80;2.20;;;23.10;82.60;;;;;;5044167;28;20654;-69
2023/07/21 08:41:37;;;;;;;2.67;2.20;;;23.30;82.80;;;;;;5047228;28;20238;-68
2023/07/21 08:44:05;;;;;;;2.40;1.70;;;23.50;81.30;;;;;;5046189;28;20160;-67
2023/07/21 08:46:31;;;;;;;4.00;2.10;;;23.70;80.40;;;;;;5044680;28;20768;-68
2023/07/21 08:48:59;;;;;;;5.77;2.00;;;23.80;81.30;;;;;;5043272;28;20807;-68
2023/07/21 08:51:25;;;;;;;2.40;1.80;;;23.90;79.30;;;;;;5045228;28;20916;-67
2023/07/21 08:53:50;;;;;;;2.90;1.90;;;24.10;79.50;;;;;;5045862;28;20413;-69
2023/07/21 08:56:17;;;;;;;3.20;1.70;;;24.20;78.10;;;;;;5044320;28;20174;-69
2023/07/21 08:58:43;;;;;;;2.67;2.00;;;24.00;76.30;;;;;;5046363;28;20278;-69
2023/07/21 09:01:09;;;;;;;5.23;1.73;;;23.40;76.40;;;;;;5044852;28;20403;-69
2023/07/21 09:03:34;;;;;;;2.57;1.50;;;23.40;75.80;;;;;;5044269;28;20412;-69
2023/07/21 09:06:01;;;;;;;1.93;1.60;;;23.40;76.40;;;;;;5041231;28;20250;-70
2023/07/21 09:08:30;;;;;;;3.40;1.90;;;23.70;77.80;;;;;;5042997;28;20205;-69
2023/07/21 09:11:03;;;;;;;2.83;1.53;;;23.90;76.00;;;;;;5043395;28;20408;-69
2023/07/21 09:13:30;;;;;;;2.67;1.80;;;24.00;74.70;;;;;;5045818;28;20444;-69
2023/07/21 09:15:58;;;;;;;4.40;2.00;;;24.10;73.90;;;;;;5045125;28;20956;-69
2023/07/21 09:18:28;;;;;;;2.87;1.20;;;24.20;73.10;;;;;;5042321;28;20465;-68
2023/07/21 09:20:55;;;;;;;4.87;1.50;;;24.30;72.70;;;;;;5040805;28;20801;-68
2023/07/21 09:23:22;;;;;;;2.13;1.93;;;24.00;71.50;;;;;;5043680;28;20402;-69
2023/07/21 09:25:56;;;;;;;3.33;1.73;;;24.20;72.00;;;;;;5043816;28;21106;-68
2023/07/21 09:28:44;;;;;;;2.13;1.67;;;24.60;72.70;;;;;;5043457;28;20424;-68
2023/07/21 09:31:11;;;;;;;2.43;1.80;;;24.90;71.50;;;;;;5043185;28;20764;-69
2023/07/21 09:33:38;;;;;;;3.83;1.83;;;24.80;71.00;;;;;;5044975;28;20401;-68
2023/07/21 09:36:09;;;;;;;2.30;1.70;;;25.00;70.60;;;;;;5043065;28;20467;-68
2023/07/21 09:38:36;;;;;;;2.77;1.90;;;25.30;69.70;;;;;;5045000;28;20471;-71
2023/07/21 09:41:12;;;;;;;3.03;1.70;;;25.50;68.40;;;;;;5039847;28;20413;-68
2023/07/21 09:43:38;;;;;;;2.90;1.70;;;25.80;67.60;;;;;;5038469;28;20455;-68
2023/07/21 09:46:07;;;;;;;2.00;1.80;;;25.70;66.80;;;;;;5044018;28;20406;-68
2023/07/21 09:48:34;;;;;;;5.37;1.80;;;25.60;66.50;;;;;;5043919;28;20931;-70
2023/07/21 09:51:10;;;;;;;4.07;2.00;;;25.80;67.20;;;;;;5044186;28;20401;-69
2023/07/21 09:53:42;;;;;;;4.47;1.63;;;25.90;64.60;;;;;;5039566;28;20406;-69
2023/07/21 09:56:09;;;;;;;2.20;1.87;;;26.10;65.20;;;;;;5038893;28;20444;-69
2023/07/21 09:58:39;;;;;;;5.17;2.03;;;25.80;65.80;;;;;;5044439;28;20544;-69
2023/07/21 10:01:05;;;;;;;2.83;1.60;;;25.80;66.60;;;;;;5044754;28;20418;-68
2023/07/21 10:03:32;;;;;;;3.50;1.80;;;26.00;65.70;;;;;;5044509;28;20432;-68
2023/07/21 10:05:59;;;;;;;3.10;1.90;;;25.80;65.40;;;;;;5042480;28;20171;-69
2023/07/21 10:08:27;;;;;;;1.80;1.43;;;25.60;66.50;;;;;;5044335;28;20437;-69
2023/07/21 10:10:57;;;;;;;2.20;1.90;;;25.60;67.10;;;;;;5043996;28;20776;-69
2023/07/21 10:13:26;;;;;;;1.80;1.70;;;25.70;66.00;;;;;;5044000;28;20423;-68
2023/07/21 10:15:51;;;;;;;6.63;1.90;;;25.50;65.20;;;;;;5042146;28;20780;-67
2023/07/21 10:18:18;;;;;;;2.40;1.70;;;25.40;65.60;;;;;;5043871;28;20595;-70
2023/07/21 10:20:49;;;;;;;1.60;1.50;;;25.60;66.30;;;;;;5042363;28;20281;-69
2023/07/21 10:23:22;;;;;;;2.83;1.77;;;25.70;65.00;;;;;;5043529;28;20425;-69
2023/07/21 10:25:50;;;;;;;2.77;1.83;;;25.80;65.10;;;;;;5042530;28;20477;-70
2023/07/21 10:28:22;;;;;;;2.50;2.10;;;26.20;64.90;;;;;;5044822;28;20432;-69
2023/07/21 10:30:49;;;;;;;5.10;2.03;;;26.30;64.80;;;;;;5038209;28;20420;-67
2023/07/21 10:33:17;;;;;;;3.87;1.60;;;26.20;63.90;;;;;;5042643;28;20970;-69
2023/07/21 10:35:43;;;;;;;4.73;1.90;;;26.10;64.50;;;;;;5043300;28;20405;-68
2023/07/21 10:38:14;;;;;;;6.13;1.90;;;25.80;63.10;;;;;;5041822;28;20990;-69
2023/07/21 10:40:47;;;;;;;2.43;1.83;;;25.50;65.00;;;;;;5038703;28;20641;-68
2023/07/21 10:43:13;;;;;;;2.30;2.10;;;25.70;64.10;;;;;;5037359;28;20489;-69
2023/07/21 10:45:38;;;;;;;2.63;1.80;;;25.00;64.30;;;;;;5043429;28;20402;-68
2023/07/21 10:48:13;;;;;;;2.40;1.90;;;25.00;65.50;;;;;;5041814;28;20187;-68
2023/07/21 10:50:48;;;;;;;2.60;1.60;;;25.30;65.80;;;;;;5043692;28;20166;-69
2023/07/21 10:53:15;;;;;;;2.20;1.97;;;25.60;65.20;;;;;;5041938;28;20438;-69
2023/07/21 10:55:41;;;;;;;2.70;1.83;;;26.00;65.30;;;;;;5042623;28;20424;-68
2023/07/21 10:58:06;;;;;;;2.30;1.50;;;25.90;64.40;;;;;;5042955;28;20418;-68
2023/07/21 11:00:51;;;;;;;5.30;2.17;;;26.00;63.40;;;;;;5040241;28;20539;-68
2023/07/21 11:03:18;;;;;;;2.20;1.53;;;26.20;63.20;;;;;;5040764;28;20292;-68
2023/07/21 11:05:43;;;;;;;2.40;1.90;;;26.30;62.90;;;;;;5042227;28;20402;-68
2023/07/21 11:08:24;;;;;;;3.83;2.10;;;26.60;62.80;;;;;;5044102;28;20933;-70
2023/07/21 11:10:49;;;;;;;2.20;1.83;;;26.60;61.40;;;;;;5033564;28;20197;-70
2023/07/21 11:13:15;;;;;;;2.90;1.77;;;27.00;61.00;;;;;;5040823;28;20835;-69
2023/07/21 11:15:41;;;;;;;1.97;1.67;;;27.20;60.90;;;;;;5043037;28;20577;-69
2023/07/21 11:18:06;;;;;;;2.90;1.70;;;27.70;62.60;;;;;;5042704;28;20703;-67
2023/07/21 11:20:35;;;;;;;2.27;1.80;;;27.60;59.60;;;;;;5043109;28;20198;-69
2023/07/21 11:23:01;;;;;;;3.90;2.00;;;27.70;59.50;;;;;;5040856;28;20259;-70
2023/07/21 11:25:26;;;;;;;7.33;2.13;;;28.00;60.00;;;;;;5041820;28;20442;-69
2023/07/21 11:27:53;;;;;;;2.00;1.80;;;27.80;58.60;;;;;;5041920;28;20229;-70
2023/07/21 11:30:19;;;;;;;2.63;1.83;;;27.90;58.50;;;;;;5043847;28;20155;-69
2023/07/21 11:32:46;;;;;;;2.03;1.80;;;28.20;59.10;;;;;;5040309;28;20439;-68
2023/07/21 11:35:11;;;;;;;2.37;1.57;;;28.40;57.90;;;;;;5040415;28;20959;-68
2023/07/21 11:37:44;;;;;;;1.90;1.57;;;28.30;57.40;;;;;;5043747;28;20417;-68
2023/07/21 11:40:14;;;;;;;2.60;1.83;;;27.90;58.70;;;;;;5038974;28;20672;-69
2023/07/21 11:42:52;;;;;;;2.00;1.83;;;27.40;60.20;;;;;;5040911;28;20491;-69
2023/07/21 11:45:40;;;;;;;2.30;1.87;;;27.30;59.60;;;;;;5036917;28;20485;-69
2023/07/21 11:48:15;;;;;;;3.63;2.00;;;27.10;63.30;;;;;;5038562;28;20422;-69
2023/07/21 11:50:54;;;;;;;2.87;1.73;;;27.00;61.80;;;;;;5040593;28;20808;-69
2023/07/21 11:53:23;;;;;;;2.47;2.10;;;26.80;61.50;;;;;;5043331;28;20784;-68
2023/07/21 11:55:49;;;;;;;2.33;2.10;;;26.40;61.70;;;;;;5041899;28;20456;-70
2023/07/21 11:58:14;;;;;;;1.87;1.63;;;26.30;62.70;;;;;;5047362;28;20456;-68
2023/07/21 12:00:43;;;;;;;4.43;2.27;;;26.00;62.40;;;;;;5043422;28;20417;-68
2023/07/21 12:03:10;;;;;;;5.57;2.40;;;25.70;63.10;;;;;;5045101;28;20255;-67
2023/07/21 12:05:36;;;;;;;3.23;2.20;;;25.60;63.90;;;;;;5047119;28;20404;-69
2023/07/21 12:08:03;;;;;;;3.30;2.13;;;25.60;64.70;;;;;;5044156;28;20421;-69
2023/07/21 12:10:29;;;;;;;1.80;1.67;;;25.70;66.40;;;;;;5046432;28;20530;-68
2023/07/21 12:12:55;;;;;;;3.97;2.13;;;25.70;65.10;;;;;;5044319;28;20406;-69
2023/07/21 12:15:21;;;;;;;2.73;1.97;;;25.80;69.10;;;;;;5047039;28;20198;-69
2023/07/21 12:17:50;;;;;;;2.93;2.10;;;25.80;66.50;;;;;;5044679;28;20444;-68
2023/07/21 12:20:17;;;;;;;2.70;2.20;;;26.00;73.40;;;;;;5044465;28;20449;-70
2023/07/21 12:22:43;;;;;;;2.27;1.67;;;25.60;80.80;;;;;;5044224;28;20417;-69
2023/07/21 12:25:09;;;;;;;4.87;2.30;;;25.10;86.60;;;;;;5046823;28;20397;-70
2023/07/21 12:27:36;;;;;;;2.60;2.40;;;24.30;88.50;;;;;;5045004;28;20417;-69
2023/07/21 12:30:06;;;;;;;11.43;2.53;;;23.80;92.10;;;;;;5044266;28;20402;-69
2023/07/21 12:32:32;;;;;;;4.07;2.43;;;23.50;95.30;;;;;;5046148;28;20425;-69
2023/07/21 12:34:58;;;;;;;2.17;1.97;;;23.10;97.10;;;;;;5043497;28;20963;-69
2023/07/21 12:37:23;;;;;;;2.97;2.10;;;23.20;96.70;;;;;;5044809;28;20602;-69
2023/07/21 12:39:50;;;;;;;3.17;2.33;;;23.20;96.50;;;;;;5044291;28;20178;-69
2023/07/21 12:42:15;;;;;;;5.00;3.57;;;23.30;97.20;;;;;;5036992;28;20164;-69
2023/07/21 12:44:41;;;;;;;4.77;2.10;;;23.40;97.70;;;;;;5044309;28;20493;-69
2023/07/21 12:47:07;;;;;;;3.63;2.20;;;23.40;97.80;;;;;;5041576;28;20217;-69